createdAt,value
2018-04-13T00:02:34.017Z,9.93
2018-04-13T00:17:35.260Z,11.10
2018-04-13T00:32:35.032Z,9.97
2018-04-13T00:47:34.614Z,11.80
2018-04-13T01:02:34.336Z,11.00
2018-04-13T01:17:34.325Z,11.47
2018-04-13T01:32:34.789Z,12.20
2018-04-13T01:47:35.197Z,12.80
2018-04-13T02:02:34.912Z,13.20
2018-04-13T02:17:35.216Z,12.83
2018-04-13T02:32:37.026Z,11.80
2018-04-13T02:47:34.431Z,13.30
2018-04-13T03:02:34.392Z,12.33
2018-04-13T03:17:36.397Z,13.87
2018-04-13T03:32:34.729Z,14.10
2018-04-13T03:47:36.064Z,15.03
2018-04-13T04:02:35.145Z,16.70
2018-04-13T04:17:36.184Z,15.00
2018-04-13T04:32:35.938Z,18.30
2018-04-13T04:47:35.537Z,20.50
2018-04-13T05:02:37.325Z,21.20
2018-04-13T05:17:35.142Z,18.17
2018-04-13T05:32:36.152Z,17.30
2018-04-13T05:47:35.228Z,19.57
2018-04-13T06:02:35.221Z,19.93
2018-04-13T06:17:35.191Z,19.47
2018-04-13T06:32:35.527Z,19.07
2018-04-13T06:47:34.527Z,21.37
2018-04-13T07:02:34.927Z,17.17
2018-04-13T07:17:34.945Z,17.03
2018-04-13T07:32:34.216Z,15.20
2018-04-13T07:47:35.306Z,16.53
2018-04-13T08:02:35.214Z,12.30
2018-04-13T08:17:35.210Z,10.63
2018-04-13T08:32:40.394Z,10.67
2018-04-13T08:47:35.111Z,9.77
2018-04-13T09:02:39.440Z,10.20
2018-04-13T09:17:37.397Z,9.63
2018-04-13T09:32:39.466Z,9.90
2018-04-13T09:47:35.827Z,10.60
2018-04-13T10:02:38.708Z,9.30
2018-04-13T10:17:35.765Z,8.70
2018-04-13T10:32:36.333Z,8.87
2018-04-13T10:47:37.112Z,13.67
2018-04-13T11:02:38.617Z,8.50
2018-04-13T11:17:37.013Z,9.33
2018-04-13T11:32:34.585Z,9.73
2018-04-13T11:47:35.499Z,8.77
2018-04-13T12:02:35.462Z,9.43
2018-04-13T12:17:36.588Z,10.00
2018-04-13T12:32:37.180Z,9.50
2018-04-13T12:47:37.618Z,8.80
2018-04-13T13:02:35.089Z,12.47
2018-04-13T13:17:35.114Z,8.93
2018-04-13T13:32:35.423Z,7.50
2018-04-13T13:47:34.262Z,7.97
2018-04-13T14:02:34.815Z,8.23
2018-04-13T14:17:34.227Z,7.30
2018-04-13T14:32:36.375Z,7.23
2018-04-13T14:47:35.885Z,7.50
2018-04-13T15:02:37.136Z,8.30
2018-04-13T15:17:34.454Z,7.50
2018-04-13T15:32:35.907Z,8.10
2018-04-13T15:47:36.880Z,9.03
2018-04-13T16:02:37.063Z,9.37
2018-04-13T16:17:34.939Z,8.10
2018-04-13T16:32:35.298Z,7.90
2018-04-13T16:47:33.842Z,9.00
2018-04-13T17:02:35.617Z,8.70
2018-04-13T17:17:34.201Z,10.00
2018-04-13T17:32:37.088Z,9.43
2018-04-13T17:47:34.595Z,18.97
2018-04-13T18:02:36.562Z,9.83
2018-04-13T18:17:34.611Z,10.10
2018-04-13T18:32:37.520Z,11.37
2018-04-13T18:47:37.766Z,12.37
2018-04-13T19:02:37.450Z,11.20
2018-04-13T19:17:36.175Z,13.90
2018-04-13T19:32:37.345Z,14.70
2018-04-13T19:47:37.381Z,13.53
2018-04-13T20:17:37.310Z,13.20
2018-04-13T20:32:34.638Z,11.53
2018-04-13T20:47:34.633Z,12.03
2018-04-13T21:02:34.209Z,13.53
2018-04-13T21:17:35.408Z,11.90
2018-04-13T21:32:34.585Z,11.43
2018-04-13T21:47:37.107Z,13.10
2018-04-13T22:02:35.074Z,11.37
2018-04-13T22:17:34.744Z,12.20
2018-04-13T22:32:37.009Z,9.87
2018-04-13T22:47:37.004Z,12.40
2018-04-13T23:02:34.862Z,11.13
2018-04-13T23:17:37.273Z,11.73
2018-04-13T23:32:34.873Z,14.20
2018-04-13T23:47:39.304Z,12.93
